Time;durP1;ratioP1;P1;durP2;ratioP2;P2;SDS_P1;SDS_P2;PMS_P1;PMS_P2;Temp;Humidity;BMP_temperature;BMP_pressure;BME280_temperature;BME280_humidity;BME280_pressure;Samples;Min_cycle;Max_cycle;Signal;HPM_P1;HPM_P2
2023/07/30 00:01:40;;;;;;;4.25;1.95;;;;;;;17.69;100.00;100023.91;8273891;28;20046;-63
2023/07/30 00:05:40;;;;;;;3.20;2.17;;;;;;;17.82;100.00;100029.47;8275885;28;20477;-63
2023/07/30 00:09:41;;;;;;;8.90;2.42;;;;;;;17.97;100.00;100030.22;8273782;28;20041;-64
2023/07/30 00:13:41;;;;;;;4.32;1.83;;;;;;;18.12;100.00;100039.16;8271987;28;20038;-63
2023/07/30 00:17:42;;;;;;;5.40;2.15;;;;;;;18.05;100.00;100026.50;8273090;28;20042;-63
2023/07/30 00:21:46;;;;;;;2.67;1.80;;;;;;;18.09;100.00;100031.34;8271742;28;20133;-63
2023/07/30 00:25:46;;;;;;;1.90;1.60;;;;;;;18.11;100.00;100031.97;8272069;28;20546;-63
2023/07/30 00:29:46;;;;;;;2.50;1.83;;;;;;;17.83;100.00;100027.56;8274313;28;20400;-63
2023/07/30 00:33:47;;;;;;;4.22;1.77;;;;;;;17.55;100.00;100030.28;8273342;28;20045;-63
2023/07/30 00:37:47;;;;;;;8.43;1.92;;;;;;;16.96;100.00;100034.31;8272566;28;20041;-62
2023/07/30 00:41:48;;;;;;;4.22;1.85;;;;;;;16.70;100.00;100039.44;8273402;28;20034;-61
2023/07/30 00:45:49;;;;;;;2.45;1.50;;;;;;;16.57;100.00;100029.22;8273986;28;20038;-61
2023/07/30 00:49:50;;;;;;;4.90;1.98;;;;;;;16.42;100.00;100043.88;8271743;28;20500;-61
2023/07/30 00:53:50;;;;;;;4.28;1.95;;;;;;;16.37;100.00;100055.34;8273127;28;20046;-60
2023/07/30 00:57:51;;;;;;;6.32;2.60;;;;;;;16.44;100.00;100055.50;8273545;28;20083;-60
2023/07/30 01:01:52;;;;;;;6.97;2.45;;;;;;;16.56;100.00;100059.44;8271732;28;20053;-60
2023/07/30 01:05:53;;;;;;;2.33;1.85;;;;;;;16.58;100.00;100068.25;8276368;28;20049;-61
2023/07/30 01:09:53;;;;;;;3.90;2.25;;;;;;;16.53;100.00;100065.28;8272802;28;20079;-60
2023/07/30 01:13:55;;;;;;;6.07;1.85;;;;;;;16.57;100.00;100070.16;8275845;28;20064;-61
2023/07/30 01:17:55;;;;;;;7.75;2.72;;;;;;;16.75;100.00;100070.63;8272672;28;20498;-62
2023/07/30 01:21:56;;;;;;;5.03;2.15;;;;;;;17.06;100.00;100073.94;8272940;28;20038;-61
2023/07/30 01:26:03;;;;;;;4.20;2.30;;;;;;;17.87;100.00;100073.47;8273370;28;20068;-61
2023/07/30 01:30:12;;;;;;;7.40;2.17;;;;;;;18.26;100.00;100062.81;8281046;28;20045;-61
2023/07/30 01:34:13;;;;;;;4.57;1.90;;;;;;;18.45;100.00;100064.84;8277996;28;20254;-60
2023/07/30 01:38:14;;;;;;;7.57;2.05;;;;;;;18.59;100.00;100074.84;8278872;28;20040;-60
2023/07/30 01:42:16;;;;;;;5.18;1.70;;;;;;;18.65;100.00;100057.59;8278141;28;20501;-61
2023/07/30 01:46:16;;;;;;;4.20;1.60;;;;;;;18.74;100.00;100070.06;8279854;28;20109;-61
2023/07/30 01:50:16;;;;;;;9.55;2.00;;;;;;;18.78;100.00;100065.88;8277755;28;20041;-63
2023/07/30 01:54:17;;;;;;;6.05;2.22;;;;;;;18.80;100.00;100054.72;8276876;28;20062;-63
2023/07/30 01:58:17;;;;;;;3.50;1.58;;;;;;;18.74;100.00;100077.44;8276106;28;20038;-63
2023/07/30 02:02:18;;;;;;;7.30;1.83;;;;;;;18.72;100.00;100074.91;8279950;28;20580;-61
2023/07/30 02:06:18;;;;;;;6.35;1.98;;;;;;;18.73;100.00;100065.63;8277153;28;20034;-62
2023/07/30 02:10:19;;;;;;;6.93;1.52;;;;;;;18.73;100.00;100068.34;8277700;28;20045;-60
2023/07/30 02:14:19;;;;;;;3.67;1.98;;;;;;;18.72;100.00;100080.38;8277505;28;20037;-62
2023/07/30 02:18:23;;;;;;;9.93;1.75;;;;;;;18.67;100.00;100066.44;8278139;28;20741;-61
2023/07/30 02:22:24;;;;;;;4.35;1.70;;;;;;;18.67;100.00;100071.91;8274444;28;20057;-61
2023/07/30 02:26:24;;;;;;;5.60;1.80;;;;;;;18.58;100.00;100067.69;8274933;28;20049;-61
2023/07/30 02:30:25;;;;;;;4.03;1.63;;;;;;;18.58;100.00;100073.16;8293652;28;20099;-61
2023/07/30 02:34:25;;;;;;;6.75;2.08;;;;;;;18.55;100.00;100068.09;8274817;28;20057;-61
2023/07/30 02:38:26;;;;;;;4.55;1.80;;;;;;;18.55;100.00;100056.28;8273462;28;20077;-61
2023/07/30 02:42:26;;;;;;;8.23;2.10;;;;;;;18.50;100.00;100059.63;8274851;28;20038;-61
2023/07/30 02:46:27;;;;;;;5.40;1.80;;;;;;;18.51;100.00;100065.97;8278432;28;20042;-61
2023/07/30 02:50:27;;;;;;;7.40;1.98;;;;;;;18.50;100.00;100070.56;8275566;28;20038;-62
2023/07/30 02:54:28;;;;;;;9.18;1.95;;;;;;;18.50;100.00;100069.72;8273205;28;20038;-62
2023/07/30 02:58:28;;;;;;;5.43;2.15;;;;;;;18.47;100.00;100081.94;8255604;28;20264;-61
2023/07/30 03:02:29;;;;;;;7.82;1.83;;;;;;;18.33;100.00;100085.59;8276138;28;20113;-62
2023/07/30 03:06:29;;;;;;;10.48;2.20;;;;;;;18.28;100.00;100087.25;8278251;28;20089;-61
2023/07/30 03:10:31;;;;;;;6.20;2.03;;;;;;;18.22;100.00;100105.31;8275398;28;20037;-61
2023/07/30 03:14:31;;;;;;;8.18;2.22;;;;;;;18.19;100.00;100099.38;8277652;28;20037;-61
2023/07/30 03:18:32;;;;;;;5.63;2.03;;;;;;;18.21;100.00;100098.13;8276981;28;20514;-61
2023/07/30 03:22:33;;;;;;;5.07;1.80;;;;;;;18.24;100.00;100091.44;8273959;28;20404;-62
2023/07/30 03:26:33;;;;;;;4.38;2.40;;;;;;;18.21;100.00;100103.59;8273433;28;20046;-62
2023/07/30 03:30:34;;;;;;;4.88;2.42;;;;;;;18.14;100.00;100108.19;8273982;28;20185;-62
2023/07/30 03:34:34;;;;;;;10.85;3.35;;;;;;;18.13;100.00;100106.50;8274762;28;20042;-61
2023/07/30 03:38:34;;;;;;;8.77;2.38;;;;;;;18.05;100.00;100098.44;8274585;28;20037;-62
2023/07/30 03:42:36;;;;;;;7.93;2.15;;;;;;;17.99;100.00;100107.44;8272888;28;20093;-62
2023/07/30 03:46:38;;;;;;;6.55;2.22;;;;;;;17.98;100.00;100115.84;8275735;28;20042;-61
2023/07/30 03:50:38;;;;;;;6.60;2.22;;;;;;;17.94;100.00;100129.09;8272852;28;20030;-61
2023/07/30 03:54:39;;;;;;;8.02;1.98;;;;;;;17.86;100.00;100139.31;8272344;28;20516;-61
2023/07/30 03:58:40;;;;;;;6.38;1.98;;;;;;;17.89;100.00;100128.81;8287751;28;20069;-62
2023/07/30 04:02:40;;;;;;;7.90;1.98;;;;;;;18.00;100.00;100128.31;8274487;28;20501;-61
2023/07/30 04:06:40;;;;;;;4.43;2.13;;;;;;;18.00;100.00;100133.78;8283417;28;20428;-61
2023/07/30 04:10:41;;;;;;;5.43;1.67;;;;;;;18.05;100.00;100131.28;8273397;28;20042;-65
2023/07/30 04:14:41;;;;;;;6.15;1.40;;;;;;;17.98;98.97;100127.66;8270717;28;20038;-64
2023/07/30 04:18:42;;;;;;;4.07;1.65;;;;;;;18.00;97.60;100139.25;8273917;28;20042;-64
2023/07/30 04:22:42;;;;;;;2.53;1.35;;;;;;;17.97;97.39;100128.69;8279202;28;20046;-64
2023/07/30 04:26:43;;;;;;;5.28;1.50;;;;;;;17.95;97.52;100127.19;8272846;28;20038;-64
2023/07/30 04:30:44;;;;;;;7.55;1.55;;;;;;;17.95;96.89;100138.97;8273062;28;20062;-64
2023/07/30 04:34:45;;;;;;;5.85;1.45;;;;;;;17.94;97.38;100140.03;8272763;28;20576;-63
2023/07/30 04:38:45;;;;;;;5.13;1.50;;;;;;;17.87;98.53;100138.28;8275817;28;20412;-65
2023/07/30 04:42:46;;;;;;;6.88;1.10;;;;;;;17.87;100.00;100138.28;8273204;28;20042;-64
2023/07/30 04:46:47;;;;;;;3.50;1.20;;;;;;;17.90;100.00;100146.09;8274757;28;20182;-64
2023/07/30 04:50:47;;;;;;;4.15;1.95;;;;;;;17.95;100.00;100141.72;8274842;28;20042;-64
2023/07/30 04:54:48;;;;;;;4.22;1.30;;;;;;;18.02;97.50;100142.59;8290090;28;20042;-64
2023/07/30 04:58:48;;;;;;;5.47;1.40;;;;;;;18.09;95.13;100142.69;8275648;28;20397;-63
2023/07/30 05:02:48;;;;;;;6.00;1.33;;;;;;;18.22;91.90;100137.31;8278365;28;20047;-64
2023/07/30 05:06:49;;;;;;;8.02;1.75;;;;;;;18.25;93.67;100143.22;8285168;28;20127;-64
2023/07/30 05:10:49;;;;;;;5.43;1.70;;;;;;;18.23;95.41;100138.97;8280307;28;20411;-62
2023/07/30 05:14:50;;;;;;;5.55;1.40;;;;;;;18.19;95.55;100144.03;8278738;28;20076;-65
2023/07/30 05:18:50;;;;;;;6.93;1.30;;;;;;;18.15;94.77;100131.78;8281150;28;20053;-64
2023/07/30 05:22:50;;;;;;;8.07;1.23;;;;;;;18.17;95.50;100132.44;8282477;28;20049;-64
2023/07/30 05:26:51;;;;;;;7.00;1.17;;;;;;;18.25;96.31;100137.75;8279381;28;20134;-64
2023/07/30 05:30:51;;;;;;;9.23;1.65;;;;;;;18.27;96.57;100138.38;8273319;28;20120;-64
2023/07/30 05:34:52;;;;;;;5.25;0.90;;;;;;;18.27;97.07;100129.34;8276853;28;20104;-64
2023/07/30 05:38:52;;;;;;;3.92;1.25;;;;;;;18.22;97.70;100131.84;8280401;28;20857;-64
2023/07/30 05:42:53;;;;;;;7.00;1.48;;;;;;;18.18;97.49;100131.41;8293464;28;20504;-64
2023/07/30 05:46:53;;;;;;;5.05;1.30;;;;;;;18.20;97.99;100123.81;8280472;28;20046;-64
2023/07/30 05:50:54;;;;;;;7.85;1.52;;;;;;;18.29;96.70;100130.84;8278950;28;20335;-64
2023/07/30 05:54:54;;;;;;;9.18;1.30;;;;;;;18.33;95.04;100140.31;8277064;28;20125;-64
2023/07/30 05:58:55;;;;;;;3.97;1.45;;;;;;;18.43;94.31;100129.94;8276935;28;20050;-63
2023/07/30 06:02:55;;;;;;;3.35;1.10;;;;;;;18.40;95.08;100146.75;8276314;28;20104;-64
2023/07/30 06:06:55;;;;;;;3.30;0.88;;;;;;;18.31;96.21;100147.06;8280727;28;20037;-64
2023/07/30 06:11:01;;;;;;;4.70;0.90;;;;;;;18.29;97.32;100155.47;8276227;28;20037;-63
2023/07/30 06:15:01;;;;;;;6.50;1.05;;;;;;;18.35;96.32;100159.28;8276616;28;20484;-64
2023/07/30 06:19:02;;;;;;;2.78;0.77;;;;;;;18.48;93.83;100160.28;8275094;28;20452;-63
2023/07/30 06:23:03;;;;;;;4.05;1.05;;;;;;;18.52;92.71;100164.31;8286115;28;20411;-64
2023/07/30 06:27:04;;;;;;;3.13;0.90;;;;;;;18.51;90.44;100170.81;8276410;28;20030;-64
2023/07/30 06:31:05;;;;;;;6.18;1.33;;;;;;;18.48;91.44;100175.88;8281114;28;20042;-63
2023/07/30 06:35:06;;;;;;;2.08;0.75;;;;;;;18.45;91.54;100177.09;8276366;28;20512;-63
2023/07/30 06:39:06;;;;;;;5.38;1.25;;;;;;;18.49;90.90;100194.84;8273838;28;20042;-63
2023/07/30 06:43:06;;;;;;;3.28;0.55;;;;;;;18.54;89.92;100192.31;8274166;28;20523;-63
2023/07/30 06:47:07;;;;;;;7.45;1.00;;;;;;;18.64;89.37;100184.63;8277520;28;20408;-63
2023/07/30 06:51:09;;;;;;;6.95;0.65;;;;;;;18.75;88.51;100186.78;8274634;28;20128;-63
2023/07/30 06:55:10;;;;;;;6.03;0.90;;;;;;;18.74;87.46;100193.31;8273433;28;20049;-63
2023/07/30 06:59:10;;;;;;;3.72;1.20;;;;;;;18.74;89.05;100201.53;8275557;28;20035;-63
2023/07/30 07:03:11;;;;;;;4.18;1.02;;;;;;;18.81;89.78;100205.16;8278152;28;20045;-63
2023/07/30 07:07:11;;;;;;;7.22;1.45;;;;;;;18.89;90.21;100210.50;8274439;28;20042;-63
2023/07/30 07:11:12;;;;;;;6.35;1.30;;;;;;;18.98;90.93;100202.94;8275076;28;20060;-63
2023/07/30 07:15:12;;;;;;;9.73;1.73;;;;;;;19.17;91.22;100204.94;8277115;28;20571;-63
2023/07/30 07:19:13;;;;;;;4.88;1.77;;;;;;;19.17;90.09;100216.75;8273787;28;20034;-63
2023/07/30 07:23:13;;;;;;;4.78;1.05;;;;;;;19.23;90.53;100215.09;8274811;28;20038;-64
2023/07/30 07:27:14;;;;;;;5.10;1.42;;;;;;;19.23;90.39;100221.44;8274432;28;20496;-64
2023/07/30 07:31:14;;;;;;;7.20;1.10;;;;;;;19.16;89.44;100215.03;8275055;28;20054;-64
2023/07/30 07:35:15;;;;;;;9.65;2.10;;;;;;;19.20;88.80;100227.31;8274121;28;20049;-63
2023/07/30 07:39:15;;;;;;;11.40;1.80;;;;;;;19.26;90.41;100223.78;8273965;28;20041;-63
2023/07/30 07:43:15;;;;;;;10.55;1.77;;;;;;;19.16;89.56;100230.66;8280069;28;20046;-61
2023/07/30 07:47:16;;;;;;;8.32;1.52;;;;;;;19.04;91.52;100227.66;8272899;28;20499;-61
2023/07/30 07:51:16;;;;;;;5.78;1.42;;;;;;;18.97;92.80;100231.41;8272894;28;20065;-61
2023/07/30 07:55:17;;;;;;;12.23;1.85;;;;;;;18.83;92.06;100225.00;8287494;28;20041;-61
2023/07/30 07:59:17;;;;;;;4.32;1.55;;;;;;;18.78;93.29;100224.72;8273660;28;20049;-61
2023/07/30 08:03:18;;;;;;;8.57;1.88;;;;;;;18.85;93.24;100222.06;8271568;28;20049;-61
2023/07/30 08:07:18;;;;;;;9.60;2.28;;;;;;;18.96;92.63;100230.53;8293440;28;20034;-62
2023/07/30 08:11:19;;;;;;;10.15;1.55;;;;;;;18.89;92.63;100229.66;8275284;28;20044;-62
2023/07/30 08:15:20;;;;;;;12.55;2.58;;;;;;;18.85;94.65;100239.31;8269574;28;20041;-61
2023/07/30 08:19:20;;;;;;;12.20;2.35;;;;;;;18.88;93.97;100244.38;8272385;28;20112;-61
2023/07/30 08:23:20;;;;;;;6.47;1.83;;;;;;;19.08;91.62;100244.53;8271380;28;20519;-61
2023/07/30 08:27:21;;;;;;;9.98;2.17;;;;;;;19.23;89.96;100247.97;8272734;28;20034;-62
2023/07/30 08:31:21;;;;;;;7.95;1.45;;;;;;;19.40;90.56;100244.72;8268816;28;20129;-61
2023/07/30 08:35:22;;;;;;;18.30;2.03;;;;;;;19.67;86.54;100250.34;8267160;28;20164;-62
2023/07/30 08:39:22;;;;;;;12.48;2.90;;;;;;;20.20;84.97;100243.94;8274741;28;20049;-62
2023/07/30 08:43:23;;;;;;;12.02;1.90;;;;;;;20.69;83.79;100236.16;8276902;28;20419;-64
2023/07/30 08:47:23;;;;;;;8.00;1.55;;;;;;;20.77;83.55;100235.94;8274622;28;20303;-63
2023/07/30 08:51:26;;;;;;;11.57;2.00;;;;;;;20.87;80.08;100236.34;8272984;28;20041;-63
2023/07/30 08:55:28;;;;;;;7.28;1.65;;;;;;;21.25;79.51;100243.69;8273049;28;20500;-63
2023/07/30 08:59:41;;;;;;;6.25;2.08;;;;;;;21.13;77.79;100239.06;8274381;28;20038;-63
2023/07/30 09:03:42;;;;;;;6.60;1.30;;;;;;;20.90;77.32;100255.16;8274023;28;20056;-64
2023/07/30 09:07:43;;;;;;;6.60;1.25;;;;;;;20.66;79.48;100258.56;8278085;28;20289;-64
2023/07/30 09:11:43;;;;;;;13.13;1.98;;;;;;;20.53;78.39;100259.41;8283578;28;20235;-65
2023/07/30 09:15:48;;;;;;;4.32;1.50;;;;;;;20.64;79.67;100257.91;8277997;28;20456;-63
2023/07/30 09:19:50;;;;;;;12.10;1.67;;;;;;;20.77;77.95;100260.66;8273658;28;20042;-63
2023/07/30 09:23:51;;;;;;;8.70;1.40;;;;;;;20.87;79.06;100267.44;8276009;28;20054;-65
2023/07/30 09:27:51;;;;;;;9.40;1.42;;;;;;;20.94;78.45;100264.66;8272785;28;20133;-63
2023/07/30 09:31:54;;;;;;;9.50;1.35;;;;;;;21.07;78.15;100268.25;8273771;28;20062;-65
2023/07/30 09:35:55;;;;;;;9.35;1.90;;;;;;;21.75;78.35;100269.56;8272184;28;20038;-65
2023/07/30 09:39:57;;;;;;;7.45;1.38;;;;;;;21.83;76.28;100280.31;8273587;28;20054;-63
2023/07/30 09:43:58;;;;;;;4.63;1.00;;;;;;;21.81;73.94;100273.34;8272013;28;20098;-64
2023/07/30 09:47:59;;;;;;;6.97;1.42;;;;;;;22.09;72.56;100263.66;8272086;28;20051;-65
2023/07/30 09:52:00;;;;;;;7.45;1.13;;;;;;;21.79;72.99;100273.56;8272074;28;20049;-64
2023/07/30 09:56:03;;;;;;;8.82;1.52;;;;;;;21.75;74.90;100266.81;8272557;28;20053;-64
2023/07/30 10:00:05;;;;;;;8.02;1.48;;;;;;;21.39;74.08;100266.50;8273099;28;20312;-62
2023/07/30 10:04:09;;;;;;;7.25;1.38;;;;;;;20.96;74.39;100273.56;8270680;28;20054;-64
2023/07/30 10:08:16;;;;;;;8.13;2.03;;;;;;;21.00;77.04;100280.31;8274388;28;20065;-64
2023/07/30 10:12:22;;;;;;;5.47;1.25;;;;;;;23.97;69.14;100271.22;8274490;28;20040;-62
2023/07/30 10:16:27;;;;;;;5.72;1.13;;;;;;;24.26;65.98;100275.06;8274954;28;20041;-61
2023/07/30 10:20:29;;;;;;;6.68;1.25;;;;;;;25.71;61.90;100278.69;8271650;28;20136;-62
2023/07/30 10:24:30;;;;;;;5.38;1.23;;;;;;;26.84;55.61;100288.69;8260917;28;20420;-62
2023/07/30 10:28:33;;;;;;;4.80;0.98;;;;;;;25.87;56.34;100271.53;8283998;28;20061;-62
2023/07/30 10:32:57;;;;;;;5.73;1.20;;;;;;;24.01;60.70;100271.59;8275438;28;20033;-61
2023/07/30 10:36:59;;;;;;;;;;;;;;;24.42;61.23;100268.84;8277682;28;20635;-61
2023/07/30 10:41:17;;;;;;;2.47;0.80;;;;;;;23.15;63.08;100280.00;8280253;28;20315;-60
2023/07/30 10:45:18;;;;;;;4.63;0.90;;;;;;;23.15;64.92;100271.72;8281650;28;20254;-60
2023/07/30 10:49:18;;;;;;;5.38;1.00;;;;;;;25.16;59.32;100266.34;8280138;28;20539;-60
2023/07/30 10:53:19;;;;;;;4.32;0.77;;;;;;;25.84;56.16;100266.50;8275886;28;20404;-62
2023/07/30 10:57:19;;;;;;;3.45;0.93;;;;;;;24.09;59.31;100255.53;8279922;28;20048;-61
2023/07/30 11:01:20;;;;;;;2.58;0.60;;;;;;;23.74;59.72;100259.19;8280222;28;20026;-61
2023/07/30 11:05:21;;;;;;;4.18;0.43;;;;;;;25.51;55.31;100258.88;8272466;28;20041;-62
2023/07/30 11:09:25;;;;;;;3.25;0.60;;;;;;;25.84;54.91;100258.19;8276456;28;20056;-61
2023/07/30 11:13:25;;;;;;;3.03;1.00;;;;;;;26.73;53.46;100270.22;8277988;28;20543;-62
2023/07/30 11:17:26;;;;;;;3.85;0.70;;;;;;;27.11;52.96;100272.19;8270894;28;21041;-61
2023/07/30 11:21:26;;;;;;;2.83;0.47;;;;;;;25.58;55.88;100265.13;8278174;28;20544;-62
2023/07/30 11:25:27;;;;;;;4.53;0.75;;;;;;;24.99;57.21;100271.78;8276427;28;20049;-62
2023/07/30 11:29:28;;;;;;;2.42;0.60;;;;;;;25.17;56.56;100273.56;8277701;28;20096;-63
2023/07/30 11:33:29;;;;;;;6.13;0.75;;;;;;;24.62;58.85;100280.47;8285855;28;20052;-61
2023/07/30 11:37:30;;;;;;;4.18;0.68;;;;;;;24.63;57.78;100287.66;8283252;28;20041;-60
2023/07/30 11:41:30;;;;;;;3.60;0.90;;;;;;;23.74;59.57;100281.28;8277680;28;20137;-60
2023/07/30 11:45:31;;;;;;;3.92;0.55;;;;;;;23.11;60.68;100292.56;8271699;28;20254;-60
2023/07/30 11:49:33;;;;;;;3.38;0.90;;;;;;;23.33;61.95;100294.94;8267745;28;20037;-62
2023/07/30 11:53:56;;;;;;;4.15;0.90;;;;;;;24.46;61.62;100297.72;8253904;28;20471;-62
2023/07/30 11:57:58;;;;;;;4.28;0.88;;;;;;;25.73;56.81;100307.00;8261607;28;20042;-60
2023/07/30 12:01:59;;;;;;;4.35;1.42;;;;;;;25.01;58.43;100310.25;8268900;28;20412;-60
2023/07/30 12:06:04;;;;;;;6.60;0.90;;;;;;;23.84;61.30;100306.41;8272294;28;20112;-60
2023/07/30 12:10:08;;;;;;;2.97;0.65;;;;;;;23.13;64.18;100311.63;8282848;28;20068;-60
2023/07/30 12:14:09;;;;;;;8.85;1.10;;;;;;;23.18;65.38;100312.63;8268697;28;20081;-60
2023/07/30 12:18:09;;;;;;;5.35;1.02;;;;;;;23.82;66.17;100322.38;8271073;28;20050;-61
2023/07/30 12:22:09;;;;;;;3.53;1.02;;;;;;;24.15;62.83;100303.50;8269793;28;20042;-60
2023/07/30 12:26:10;;;;;;;6.57;1.10;;;;;;;24.25;61.17;100323.13;8271614;28;20471;-60
2023/07/30 12:30:11;;;;;;;5.57;0.98;;;;;;;24.22;62.06;100315.31;8271410;28;20034;-60
2023/07/30 12:34:12;;;;;;;5.25;0.95;;;;;;;23.48;63.91;100331.28;8269874;28;20589;-61
2023/07/30 12:38:12;;;;;;;4.15;0.63;;;;;;;23.21;64.40;100331.50;8273558;28;20040;-60
2023/07/30 12:42:13;;;;;;;3.78;1.00;;;;;;;22.84;65.49;100337.97;8271702;28;20042;-60
2023/07/30 12:46:13;;;;;;;5.97;1.20;;;;;;;22.48;71.52;100335.03;8272885;28;20412;-60
2023/07/30 12:50:14;;;;;;;9.30;1.42;;;;;;;22.63;74.31;100338.34;8270572;28;20060;-61
2023/07/30 12:54:15;;;;;;;6.40;1.45;;;;;;;22.63;69.34;100338.34;8271179;28;20104;-61
2023/07/30 12:58:15;;;;;;;6.22;1.00;;;;;;;22.75;67.92;100336.56;8270023;28;20523;-61
2023/07/30 13:02:15;;;;;;;5.00;1.23;;;;;;;22.70;68.34;100350.19;8285588;28;20038;-61
2023/07/30 13:06:16;;;;;;;4.25;0.77;;;;;;;22.35;66.78;100346.13;8273129;28;20054;-60
2023/07/30 13:10:16;;;;;;;8.20;1.80;;;;;;;22.55;66.08;100340.53;8270731;28;20038;-61
2023/07/30 13:14:17;;;;;;;4.80;0.85;;;;;;;23.28;65.89;100341.66;8266898;28;20112;-61
2023/07/30 13:18:18;;;;;;;4.30;1.05;;;;;;;23.00;65.42;100345.69;8279666;28;20041;-61
2023/07/30 13:22:18;;;;;;;5.72;1.00;;;;;;;22.83;64.76;100339.06;8284529;28;20496;-61
2023/07/30 13:26:19;;;;;;;6.40;1.10;;;;;;;22.81;63.83;100346.69;8280647;28;20559;-61
2023/07/30 13:30:20;;;;;;;7.18;1.10;;;;;;;23.28;63.90;100336.13;8276583;28;20046;-61
2023/07/30 13:34:20;;;;;;;5.53;1.05;;;;;;;23.36;63.06;100338.63;8278249;28;20046;-61
2023/07/30 13:38:22;;;;;;;6.40;1.38;;;;;;;23.50;61.98;100340.16;8293298;28;20038;-61
2023/07/30 13:42:22;;;;;;;7.63;1.00;;;;;;;23.40;62.29;100328.81;8274998;28;20563;-61
2023/07/30 13:46:23;;;;;;;4.18;0.80;;;;;;;23.24;63.59;100333.00;8290658;28;20564;-61
2023/07/30 13:50:23;;;;;;;5.70;0.98;;;;;;;23.55;61.95;100318.25;8291561;28;20454;-61
2023/07/30 13:54:29;;;;;;;4.80;0.68;;;;;;;23.67;58.63;100316.41;8277876;28;20042;-61
2023/07/30 13:58:31;;;;;;;6.35;1.42;;;;;;;23.66;59.84;100325.78;8284215;28;20121;-64
2023/07/30 14:02:31;;;;;;;9.70;1.02;;;;;;;23.66;59.87;100311.97;8277458;28;20046;-64
2023/07/30 14:06:32;;;;;;;5.97;1.13;;;;;;;23.76;60.40;100323.31;8276852;28;20097;-65
2023/07/30 14:10:33;;;;;;;4.90;0.95;;;;;;;23.80;58.75;100319.00;8279412;28;20037;-61
2023/07/30 14:14:34;;;;;;;4.82;0.90;;;;;;;23.93;60.12;100307.78;8284087;28;20034;-63
2023/07/30 14:18:34;;;;;;;4.93;0.57;;;;;;;23.79;58.33;100317.31;8284088;28;20034;-63
2023/07/30 14:22:35;;;;;;;4.40;0.80;;;;;;;23.79;58.11;100317.31;8273679;28;20141;-62
2023/07/30 14:26:36;;;;;;;3.40;0.77;;;;;;;23.79;59.12;100309.03;8273490;28;20129;-64
2023/07/30 14:30:38;;;;;;;4.10;1.00;;;;;;;23.71;59.60;100315.72;8276052;28;20049;-64
2023/07/30 14:34:38;;;;;;;4.35;1.00;;;;;;;23.65;58.93;100326.81;8275326;28;20038;-65
2023/07/30 14:38:39;;;;;;;4.80;0.77;;;;;;;23.77;58.99;100308.41;8268845;28;20092;-64
2023/07/30 14:42:41;;;;;;;4.90;0.90;;;;;;;23.72;60.65;100322.09;8272920;28;20592;-62
2023/07/30 14:46:41;;;;;;;3.72;0.70;;;;;;;23.67;60.15;100319.16;8275210;28;20060;-61
2023/07/30 14:50:42;;;;;;;5.63;0.90;;;;;;;23.95;60.04;100314.81;8270538;28;20501;-64
2023/07/30 14:54:44;;;;;;;5.97;0.98;;;;;;;23.77;59.99;100309.28;8269831;28;20050;-63
2023/07/30 14:58:45;;;;;;;3.92;0.90;;;;;;;23.65;60.98;100315.78;8271188;28;20046;-61
2023/07/30 15:02:45;;;;;;;4.88;1.15;;;;;;;23.69;61.85;100328.06;8273632;28;20052;-59
2023/07/30 15:06:47;;;;;;;5.88;1.13;;;;;;;23.63;60.49;100324.28;8278939;28;20050;-61
2023/07/30 15:10:47;;;;;;;4.20;1.48;;;;;;;23.52;62.00;100321.47;8270070;28;20070;-61
2023/07/30 15:14:48;;;;;;;5.63;1.05;;;;;;;23.47;61.01;100322.16;8271277;28;20053;-64
2023/07/30 15:18:48;;;;;;;6.25;1.15;;;;;;;23.73;61.61;100318.25;8270981;28;20054;-64
2023/07/30 15:22:50;;;;;;;4.25;0.98;;;;;;;23.84;61.63;100309.16;8268890;28;20092;-64
2023/07/30 15:26:50;;;;;;;7.03;1.30;;;;;;;23.81;60.37;100310.50;8269818;28;20038;-63
2023/07/30 15:30:52;;;;;;;4.97;1.02;;;;;;;23.80;60.28;100314.34;8270212;28;20066;-63
2023/07/30 15:34:52;;;;;;;4.28;0.90;;;;;;;23.62;60.01;100306.06;8266072;28;20052;-64
2023/07/30 15:38:54;;;;;;;5.53;1.30;;;;;;;23.50;61.16;100309.78;8270968;28;20041;-64
2023/07/30 15:42:54;;;;;;;2.28;1.00;;;;;;;23.66;60.97;100300.94;8276106;28;20034;-64
2023/07/30 15:46:56;;;;;;;4.05;1.17;;;;;;;23.69;61.74;100294.94;8270718;28;20545;-64
2023/07/30 15:51:01;;;;;;;3.88;0.90;;;;;;;23.72;62.53;100300.00;8265312;28;20382;-64
2023/07/30 15:55:01;;;;;;;6.32;1.40;;;;;;;23.57;61.41;100299.53;8285691;28;20105;-64
2023/07/30 15:59:02;;;;;;;7.95;1.05;;;;;;;23.59;61.13;100300.13;8271002;28;20049;-63
2023/07/30 16:03:05;;;;;;;4.97;1.00;;;;;;;23.57;61.19;100294.03;8272082;28;20587;-65
2023/07/30 16:07:06;;;;;;;4.20;1.33;;;;;;;23.60;60.65;100301.84;8289962;28;20042;-63
2023/07/30 16:11:11;;;;;;;7.15;1.10;;;;;;;23.42;61.08;100293.56;8269040;28;20054;-61
2023/07/30 16:15:11;;;;;;;4.22;1.50;;;;;;;23.43;61.08;100306.28;8272936;28;20034;-64
2023/07/30 16:19:13;;;;;;;4.03;0.93;;;;;;;23.42;61.01;100293.56;8271183;28;20050;-64
2023/07/30 16:23:14;;;;;;;3.80;1.13;;;;;;;23.38;62.13;100297.81;8268554;28;20045;-64
2023/07/30 16:27:18;;;;;;;3.13;0.60;;;;;;;23.53;60.97;100281.72;8267885;28;20034;-64
2023/07/30 16:31:18;;;;;;;6.72;1.25;;;;;;;23.56;60.09;100290.41;8269757;28;20131;-63
2023/07/30 16:35:19;;;;;;;4.90;1.02;;;;;;;23.54;59.11;100275.16;8271873;28;20117;-61
2023/07/30 16:39:19;;;;;;;4.75;1.05;;;;;;;23.66;58.87;100278.84;8281692;28;20049;-61
2023/07/30 16:43:20;;;;;;;6.53;1.30;;;;;;;23.69;59.51;100279.19;8274688;28;20049;-61
2023/07/30 16:47:21;;;;;;;2.10;0.90;;;;;;;23.60;57.32;100274.25;8272275;28;20045;-62
2023/07/30 16:51:22;;;;;;;4.70;1.17;;;;;;;23.53;57.72;100273.44;8268667;28;20042;-61
2023/07/30 16:55:24;;;;;;;3.38;0.90;;;;;;;23.67;58.72;100272.22;8274016;28;20108;-61
2023/07/30 16:59:25;;;;;;;3.25;0.90;;;;;;;23.57;57.50;100277.47;8275037;28;20606;-62
2023/07/30 17:03:26;;;;;;;2.55;0.82;;;;;;;23.58;58.36;100284.66;8282967;28;20496;-62
2023/07/30 17:07:28;;;;;;;4.82;1.10;;;;;;;23.55;58.46;100287.88;8290353;28;20290;-63
2023/07/30 17:11:30;;;;;;;3.42;0.85;;;;;;;23.40;58.18;100284.66;8285103;28;20063;-61
2023/07/30 17:15:31;;;;;;;2.08;0.90;;;;;;;23.31;58.64;100297.06;8287504;28;20411;-64
2023/07/30 17:19:33;;;;;;;5.72;1.55;;;;;;;23.17;59.81;100308.19;8290401;28;20042;-64
2023/07/30 17:23:35;;;;;;;2.08;0.80;;;;;;;23.02;60.22;100313.22;8273121;28;20522;-63
2023/07/30 17:27:36;;;;;;;5.70;1.13;;;;;;;22.82;60.78;100320.84;8279432;28;20427;-64
2023/07/30 17:31:37;;;;;;;5.93;1.33;;;;;;;22.78;61.67;100330.59;8273870;28;20067;-64
2023/07/30 17:35:38;;;;;;;4.25;1.10;;;;;;;22.62;62.39;100346.84;8273875;28;20039;-61
2023/07/30 17:39:38;;;;;;;6.72;1.33;;;;;;;22.29;65.68;100363.53;8273374;28;20046;-61
2023/07/30 17:43:39;;;;;;;4.72;1.05;;;;;;;21.92;69.14;100378.13;8272769;28;20065;-62
2023/07/30 17:47:40;;;;;;;5.72;1.17;;;;;;;21.47;73.48;100395.53;8274432;28;20101;-60
2023/07/30 17:51:40;;;;;;;7.75;1.60;;;;;;;20.87;81.43;100415.00;8271955;28;20476;-60
2023/07/30 17:55:43;;;;;;;5.38;1.52;;;;;;;20.39;84.79;100419.72;8278421;28;20146;-62
2023/07/30 17:59:43;;;;;;;5.63;1.80;;;;;;;20.14;86.99;100423.22;8286251;28;20041;-60
2023/07/30 18:03:44;;;;;;;4.28;0.98;;;;;;;20.07;89.17;100422.31;8272634;28;20432;-61
2023/07/30 18:07:44;;;;;;;5.38;1.55;;;;;;;20.03;91.73;100419.13;8260296;28;20091;-60
2023/07/30 18:11:45;;;;;;;4.10;2.00;;;;;;;19.83;95.22;100414.59;8285849;28;20042;-62
2023/07/30 18:15:45;;;;;;;3.70;1.20;;;;;;;19.84;97.92;100421.75;8274765;28;20050;-64
2023/07/30 18:19:45;;;;;;;8.52;1.83;;;;;;;19.85;97.87;100423.47;8271158;28;20053;-63
2023/07/30 18:23:46;;;;;;;4.82;1.63;;;;;;;19.95;97.73;100412.97;8273674;28;20403;-63
2023/07/30 18:27:46;;;;;;;4.03;1.65;;;;;;;19.81;99.22;100422.16;8283669;28;20551;-65
2023/07/30 18:31:47;;;;;;;6.68;1.58;;;;;;;19.62;100.00;100425.63;8284674;28;20046;-63
2023/07/30 18:35:47;;;;;;;7.30;1.77;;;;;;;19.56;100.00;100420.94;8271222;28;20043;-64
2023/07/30 18:39:48;;;;;;;5.95;1.60;;;;;;;19.56;100.00;100424.56;8271356;28;20046;-64